sensor_id;sensor_type;location;lat;lon;timestamp;pressure;altitude;pressure_sealevel;temperature;humidity
7990;BME280;4040;42.848;23.034;2023-05-15T00:03:27;94983.75;;;10.83;100.00
7990;BME280;4040;42.848;23.034;2023-05-15T00:13:39;94972.97;;;10.83;100.00
7990;BME280;4040;42.848;23.034;2023-05-15T00:19:27;94923.78;;;10.76;100.00
7990;BME280;4040;42.848;23.034;2023-05-15T00:25:16;94934.91;;;10.78;100.00
7990;BME280;4040;42.848;23.034;2023-05-15T00:31:07;94951.06;;;10.78;100.00
7990;BME280;4040;42.848;23.034;2023-05-15T00:36:56;94940.69;;;10.76;100.00
7990;BME280;4040;42.848;23.034;2023-05-15T00:42:45;94929.19;;;10.72;100.00
7990;BME280;4040;42.848;23.034;2023-05-15T00:48:35;94936.91;;;10.70;100.00
7990;BME280;4040;42.848;23.034;2023-05-15T00:54:24;94930.38;;;10.68;100.00
7990;BME280;4040;42.848;23.034;2023-05-15T01:00:14;94943.19;;;10.53;100.00
7990;BME280;4040;42.848;23.034;2023-05-15T01:06:06;94963.03;;;10.77;100.00
7990;BME280;4040;42.848;23.034;2023-05-15T01:16:19;94950.69;;;10.79;100.00
7990;BME280;4040;42.848;23.034;2023-05-15T01:22:37;94906.41;;;10.80;100.00
7990;BME280;4040;42.848;23.034;2023-05-15T01:28:31;94928.34;;;10.82;100.00
7990;BME280;4040;42.848;23.034;2023-05-15T01:34:22;94927.13;;;10.87;100.00
7990;BME280;4040;42.848;23.034;2023-05-15T01:40:16;94918.22;;;10.93;100.00
7990;BME280;4040;42.848;23.034;2023-05-15T01:46:08;94911.22;;;10.99;100.00
7990;BME280;4040;42.848;23.034;2023-05-15T01:52:03;94915.81;;;11.02;100.00
7990;BME280;4040;42.848;23.034;2023-05-15T01:57:54;94908.94;;;10.98;100.00
7990;BME280;4040;42.848;23.034;2023-05-15T02:03:46;94930.13;;;10.96;100.00
7990;BME280;4040;42.848;23.034;2023-05-15T02:09:35;94908.97;;;10.94;100.00
7990;BME280;4040;42.848;23.034;2023-05-15T02:15:24;94905.91;;;10.92;100.00
7990;BME280;4040;42.848;23.034;2023-05-15T02:21:15;94889.28;;;10.97;100.00
7990;BME280;4040;42.848;23.034;2023-05-15T02:27:11;94894.16;;;11.09;100.00
7990;BME280;4040;42.848;23.034;2023-05-15T02:33:09;94906.22;;;11.31;100.00
7990;BME280;4040;42.848;23.034;2023-05-15T02:39:01;94896.00;;;11.16;100.00
7990;BME280;4040;42.848;23.034;2023-05-15T02:44:52;94903.91;;;11.33;100.00
7990;BME280;4040;42.848;23.034;2023-05-15T02:50:42;94888.53;;;11.30;100.00
7990;BME280;4040;42.848;23.034;2023-05-15T02:56:33;94886.13;;;11.39;100.00
7990;BME280;4040;42.848;23.034;2023-05-15T03:02:22;94885.50;;;11.25;100.00
7990;BME280;4040;42.848;23.034;2023-05-15T03:08:11;94885.47;;;11.28;100.00
7990;BME280;4040;42.848;23.034;2023-05-15T03:18:13;94874.78;;;11.21;100.00
7990;BME280;4040;42.848;23.034;2023-05-15T03:24:05;94877.75;;;11.30;100.00
7990;BME280;4040;42.848;23.034;2023-05-15T03:29:54;94876.22;;;11.29;100.00
7990;BME280;4040;42.848;23.034;2023-05-15T03:35:43;94882.97;;;11.44;100.00
7990;BME280;4040;42.848;23.034;2023-05-15T03:41:32;94895.94;;;11.56;100.00
7990;BME280;4040;42.848;23.034;2023-05-15T03:47:20;94884.41;;;11.52;100.00
7990;BME280;4040;42.848;23.034;2023-05-15T03:53:11;94881.53;;;11.36;100.00
7990;BME280;4040;42.848;23.034;2023-05-15T03:58:59;94899.56;;;11.76;100.00
7990;BME280;4040;42.848;23.034;2023-05-15T04:04:48;94886.75;;;11.80;100.00
7990;BME280;4040;42.848;23.034;2023-05-15T04:10:38;94876.44;;;11.75;100.00
7990;BME280;4040;42.848;23.034;2023-05-15T04:20:49;94886.06;;;11.76;100.00
7990;BME280;4040;42.848;23.034;2023-05-15T04:26:40;94870.00;;;11.92;100.00
7990;BME280;4040;42.848;23.034;2023-05-15T04:32:30;94854.63;;;11.89;100.00
7990;BME280;4040;42.848;23.034;2023-05-15T04:38:19;94856.91;;;11.94;100.00
7990;BME280;4040;42.848;23.034;2023-05-15T04:44:09;94856.72;;;12.05;100.00
7990;BME280;4040;42.848;23.034;2023-05-15T04:49:58;94859.28;;;12.15;100.00
7990;BME280;4040;42.848;23.034;2023-05-15T04:55:47;94861.25;;;12.11;100.00
7990;BME280;4040;42.848;23.034;2023-05-15T05:01:38;94872.81;;;12.12;100.00
7990;BME280;4040;42.848;23.034;2023-05-15T05:07:27;94892.66;;;12.25;100.00
7990;BME280;4040;42.848;23.034;2023-05-15T05:13:16;94886.03;;;12.29;100.00
7990;BME280;4040;42.848;23.034;2023-05-15T05:23:28;94858.28;;;12.02;100.00
7990;BME280;4040;42.848;23.034;2023-05-15T05:29:17;94850.63;;;12.01;100.00
7990;BME280;4040;42.848;23.034;2023-05-15T05:35:06;94872.22;;;12.01;100.00
7990;BME280;4040;42.848;23.034;2023-05-15T05:40:57;94858.78;;;12.20;100.00
7990;BME280;4040;42.848;23.034;2023-05-15T05:46:47;94857.97;;;12.23;100.00
7990;BME280;4040;42.848;23.034;2023-05-15T05:52:35;94855.16;;;12.53;100.00
7990;BME280;4040;42.848;23.034;2023-05-15T05:58:26;94868.84;;;13.08;100.00
7990;BME280;4040;42.848;23.034;2023-05-15T06:04:14;94849.38;;;12.97;100.00
7990;BME280;4040;42.848;23.034;2023-05-15T06:10:04;94860.16;;;13.20;100.00
7990;BME280;4040;42.848;23.034;2023-05-15T06:15:55;94872.44;;;13.60;100.00
7990;BME280;4040;42.848;23.034;2023-05-15T06:26:05;94864.38;;;13.76;100.00
7990;BME280;4040;42.848;23.034;2023-05-15T06:31:56;94866.97;;;13.99;100.00
7990;BME280;4040;42.848;23.034;2023-05-15T06:37:44;94869.34;;;13.97;100.00
7990;BME280;4040;42.848;23.034;2023-05-15T06:43:36;94854.94;;;13.84;100.00
7990;BME280;4040;42.848;23.034;2023-05-15T06:49:26;94843.81;;;14.30;100.00
7990;BME280;4040;42.848;23.034;2023-05-15T06:55:15;94840.09;;;14.56;100.00
7990;BME280;4040;42.848;23.034;2023-05-15T07:01:04;94850.78;;;14.47;100.00
7990;BME280;4040;42.848;23.034;2023-05-15T07:06:54;94855.16;;;14.41;100.00
7990;BME280;4040;42.848;23.034;2023-05-15T07:12:43;94862.78;;;14.62;100.00
7990;BME280;4040;42.848;23.034;2023-05-15T07:18:32;94859.50;;;14.99;100.00
7990;BME280;4040;42.848;23.034;2023-05-15T07:28:44;94853.94;;;16.50;100.00
7990;BME280;4040;42.848;23.034;2023-05-15T07:34:33;94835.34;;;16.36;100.00
7990;BME280;4040;42.848;23.034;2023-05-15T07:40:21;94848.53;;;16.71;100.00
7990;BME280;4040;42.848;23.034;2023-05-15T07:46:11;94826.41;;;16.10;100.00
7990;BME280;4040;42.848;23.034;2023-05-15T07:52:01;94872.00;;;15.65;100.00
7990;BME280;4040;42.848;23.034;2023-05-15T07:57:49;94867.00;;;15.23;100.00
7990;BME280;4040;42.848;23.034;2023-05-15T08:03:39;94877.63;;;15.02;100.00
7990;BME280;4040;42.848;23.034;2023-05-15T08:09:28;94888.69;;;14.63;100.00
7990;BME280;4040;42.848;23.034;2023-05-15T08:15:17;94893.19;;;14.53;100.00
7990;BME280;4040;42.848;23.034;2023-05-15T08:21:07;94877.59;;;14.73;100.00
7990;BME280;4040;42.848;23.034;2023-05-15T08:31:17;94857.03;;;14.60;100.00
7990;BME280;4040;42.848;23.034;2023-05-15T08:37:08;94858.88;;;14.79;100.00
7990;BME280;4040;42.848;23.034;2023-05-15T08:43:00;94821.75;;;14.76;100.00
7990;BME280;4040;42.848;23.034;2023-05-15T08:48:51;94859.06;;;14.40;100.00
7990;BME280;4040;42.848;23.034;2023-05-15T08:54:41;94842.72;;;14.43;100.00
7990;BME280;4040;42.848;23.034;2023-05-15T09:00:30;94841.81;;;14.18;100.00
7990;BME280;4040;42.848;23.034;2023-05-15T09:06:21;94848.75;;;14.35;100.00
7990;BME280;4040;42.848;23.034;2023-05-15T09:12:13;94842.44;;;14.54;100.00
7990;BME280;4040;42.848;23.034;2023-05-15T09:18:03;94832.16;;;14.93;100.00
7990;BME280;4040;42.848;23.034;2023-05-15T09:23:54;94831.56;;;15.42;100.00
7990;BME280;4040;42.848;23.034;2023-05-15T09:34:06;94794.81;;;16.75;100.00
7990;BME280;4040;42.848;23.034;2023-05-15T09:40:05;94819.81;;;16.70;100.00
7990;BME280;4040;42.848;23.034;2023-05-15T09:45:57;94816.22;;;16.14;100.00
7990;BME280;4040;42.848;23.034;2023-05-15T09:51:48;94823.03;;;16.56;100.00
7990;BME280;4040;42.848;23.034;2023-05-15T09:57:37;94810.34;;;16.75;100.00
7990;BME280;4040;42.848;23.034;2023-05-15T10:03:25;94827.78;;;16.65;100.00
7990;BME280;4040;42.848;23.034;2023-05-15T10:09:15;94836.97;;;16.08;100.00
7990;BME280;4040;42.848;23.034;2023-05-15T10:15:05;94819.25;;;15.91;100.00
7990;BME280;4040;42.848;23.034;2023-05-15T10:20:54;94836.38;;;15.23;100.00
7990;BME280;4040;42.848;23.034;2023-05-15T10:26:46;94837.91;;;15.64;100.00
7990;BME280;4040;42.848;23.034;2023-05-15T10:36:57;94836.41;;;15.88;100.00
7990;BME280;4040;42.848;23.034;2023-05-15T10:42:48;94823.16;;;16.15;100.00
7990;BME280;4040;42.848;23.034;2023-05-15T10:48:37;94817.19;;;15.95;100.00
7990;BME280;4040;42.848;23.034;2023-05-15T10:54:27;94821.00;;;15.85;100.00
7990;BME280;4040;42.848;23.034;2023-05-15T11:00:39;94821.31;;;15.87;100.00
7990;BME280;4040;42.848;23.034;2023-05-15T11:06:29;94815.97;;;16.46;100.00
7990;BME280;4040;42.848;23.034;2023-05-15T11:12:18;94801.44;;;17.51;100.00
7990;BME280;4040;42.848;23.034;2023-05-15T11:18:09;94803.84;;;18.19;100.00
7990;BME280;4040;42.848;23.034;2023-05-15T11:24:03;94793.53;;;18.14;100.00
7990;BME280;4040;42.848;23.034;2023-05-15T11:30:12;94791.88;;;17.77;100.00
7990;BME280;4040;42.848;23.034;2023-05-15T11:40:26;94784.59;;;18.71;100.00
7990;BME280;4040;42.848;23.034;2023-05-15T11:46:16;94775.81;;;18.85;100.00
7990;BME280;4040;42.848;23.034;2023-05-15T11:52:05;94785.78;;;18.43;100.00
7990;BME280;4040;42.848;23.034;2023-05-15T11:57:55;94783.69;;;18.07;100.00
7990;BME280;4040;42.848;23.034;2023-05-15T12:03:46;94783.03;;;18.03;100.00
7990;BME280;4040;42.848;23.034;2023-05-15T12:09:38;94779.41;;;17.67;100.00
7990;BME280;4040;42.848;23.034;2023-05-15T12:15:28;94752.28;;;18.51;100.00
7990;BME280;4040;42.848;23.034;2023-05-15T12:21:17;94735.66;;;18.01;100.00
7990;BME280;4040;42.848;23.034;2023-05-15T12:27:06;94720.09;;;18.19;100.00
7990;BME280;4040;42.848;23.034;2023-05-15T12:33:01;94701.75;;;18.02;100.00
7990;BME280;4040;42.848;23.034;2023-05-15T12:43:13;94707.78;;;17.97;100.00
7990;BME280;4040;42.848;23.034;2023-05-15T12:49:03;94702.00;;;17.86;100.00
7990;BME280;4040;42.848;23.034;2023-05-15T12:54:51;94700.31;;;18.46;100.00
7990;BME280;4040;42.848;23.034;2023-05-15T13:00:41;94682.59;;;18.68;100.00
7990;BME280;4040;42.848;23.034;2023-05-15T13:06:33;94682.75;;;18.56;100.00
7990;BME280;4040;42.848;23.034;2023-05-15T13:12:22;94673.97;;;18.52;100.00
7990;BME280;4040;42.848;23.034;2023-05-15T13:18:12;94688.66;;;18.81;100.00
7990;BME280;4040;42.848;23.034;2023-05-15T13:24:03;94660.59;;;18.72;100.00
7990;BME280;4040;42.848;23.034;2023-05-15T13:29:51;94682.06;;;19.24;100.00
7990;BME280;4040;42.848;23.034;2023-05-15T13:35:40;94683.13;;;19.17;100.00
7990;BME280;4040;42.848;23.034;2023-05-15T13:45:53;94688.78;;;19.05;100.00
7990;BME280;4040;42.848;23.034;2023-05-15T13:51:42;94682.09;;;19.06;100.00
7990;BME280;4040;42.848;23.034;2023-05-15T13:57:30;94666.53;;;19.48;100.00
7990;BME280;4040;42.848;23.034;2023-05-15T14:03:21;94682.22;;;19.71;100.00
7990;BME280;4040;42.848;23.034;2023-05-15T14:09:09;94681.47;;;19.20;100.00
7990;BME280;4040;42.848;23.034;2023-05-15T14:14:58;94676.94;;;19.26;100.00
7990;BME280;4040;42.848;23.034;2023-05-15T14:20:48;94682.56;;;18.95;100.00
7990;BME280;4040;42.848;23.034;2023-05-15T14:26:36;94664.72;;;18.58;100.00
7990;BME280;4040;42.848;23.034;2023-05-15T14:32:25;94665.94;;;18.39;100.00
7990;BME280;4040;42.848;23.034;2023-05-15T14:38:16;94662.41;;;18.21;100.00
7990;BME280;4040;42.848;23.034;2023-05-15T14:48:26;94641.50;;;18.00;100.00
7990;BME280;4040;42.848;23.034;2023-05-15T14:54:17;94636.47;;;17.90;100.00
7990;BME280;4040;42.848;23.034;2023-05-15T15:00:07;94613.31;;;17.94;100.00
7990;BME280;4040;42.848;23.034;2023-05-15T15:05:56;94619.69;;;18.00;100.00
7990;BME280;4040;42.848;23.034;2023-05-15T15:11:46;94625.56;;;17.90;100.00
7990;BME280;4040;42.848;23.034;2023-05-15T15:17:34;94633.31;;;18.09;100.00
7990;BME280;4040;42.848;23.034;2023-05-15T15:23:23;94660.28;;;18.16;100.00
7990;BME280;4040;42.848;23.034;2023-05-15T15:29:13;94638.38;;;17.62;100.00
7990;BME280;4040;42.848;23.034;2023-05-15T15:35:01;94663.13;;;17.46;100.00
7990;BME280;4040;42.848;23.034;2023-05-15T15:40:50;94654.13;;;17.58;100.00
7990;BME280;4040;42.848;23.034;2023-05-15T15:51:03;94664.28;;;17.36;100.00
7990;BME280;4040;42.848;23.034;2023-05-15T15:56:53;94674.00;;;17.46;100.00
7990;BME280;4040;42.848;23.034;2023-05-15T16:02:41;94662.13;;;17.31;100.00
7990;BME280;4040;42.848;23.034;2023-05-15T16:08:32;94652.16;;;17.28;100.00
7990;BME280;4040;42.848;23.034;2023-05-15T16:14:21;94662.94;;;17.10;100.00
7990;BME280;4040;42.848;23.034;2023-05-15T16:20:10;94676.38;;;16.83;100.00
7990;BME280;4040;42.848;23.034;2023-05-15T16:26:01;94674.50;;;16.71;100.00
7990;BME280;4040;42.848;23.034;2023-05-15T16:31:50;94668.06;;;16.56;100.00
7990;BME280;4040;42.848;23.034;2023-05-15T16:37:39;94675.34;;;16.47;100.00
7990;BME280;4040;42.848;23.034;2023-05-15T16:43:29;94677.75;;;16.45;100.00
7990;BME280;4040;42.848;23.034;2023-05-15T16:53:40;94670.78;;;16.22;100.00
7990;BME280;4040;42.848;23.034;2023-05-15T16:59:30;94676.75;;;16.17;100.00
7990;BME280;4040;42.848;23.034;2023-05-15T17:05:19;94663.13;;;15.96;100.00
7990;BME280;4040;42.848;23.034;2023-05-15T17:11:08;94672.19;;;15.80;100.00
7990;BME280;4040;42.848;23.034;2023-05-15T17:16:59;94690.44;;;15.67;100.00
7990;BME280;4040;42.848;23.034;2023-05-15T17:22:48;94710.19;;;15.68;100.00
7990;BME280;4040;42.848;23.034;2023-05-15T17:28:37;94728.69;;;15.60;100.00
7990;BME280;4040;42.848;23.034;2023-05-15T17:34:27;94739.28;;;15.67;100.00
7990;BME280;4040;42.848;23.034;2023-05-15T17:40:16;94726.69;;;15.48;100.00
7990;BME280;4040;42.848;23.034;2023-05-15T17:46:05;94722.38;;;15.38;100.00
7990;BME280;4040;42.848;23.034;2023-05-15T17:56:18;94673.56;;;15.10;100.00
7990;BME280;4040;42.848;23.034;2023-05-15T18:02:07;94666.41;;;15.04;100.00
7990;BME280;4040;42.848;23.034;2023-05-15T18:07:55;94684.75;;;15.00;100.00
7990;BME280;4040;42.848;23.034;2023-05-15T18:13:47;94709.28;;;15.09;100.00
7990;BME280;4040;42.848;23.034;2023-05-15T18:19:36;94697.13;;;15.01;100.00
7990;BME280;4040;42.848;23.034;2023-05-15T18:25:25;94701.41;;;14.86;100.00
7990;BME280;4040;42.848;23.034;2023-05-15T18:31:25;94716.84;;;14.89;100.00
7990;BME280;4040;42.848;23.034;2023-05-15T18:37:14;94710.72;;;14.85;100.00
7990;BME280;4040;42.848;23.034;2023-05-15T18:43:03;94711.19;;;14.96;100.00
7990;BME280;4040;42.848;23.034;2023-05-15T18:48:53;94732.03;;;14.99;100.00
7990;BME280;4040;42.848;23.034;2023-05-15T18:59:03;94723.78;;;14.90;100.00
7990;BME280;4040;42.848;23.034;2023-05-15T19:04:54;94735.72;;;15.05;100.00
7990;BME280;4040;42.848;23.034;2023-05-15T19:10:46;94747.78;;;15.04;100.00
7990;BME280;4040;42.848;23.034;2023-05-15T19:16:35;94744.59;;;14.93;100.00
7990;BME280;4040;42.848;23.034;2023-05-15T19:22:26;94745.28;;;14.97;100.00
7990;BME280;4040;42.848;23.034;2023-05-15T19:28:14;94744.47;;;14.84;100.00
7990;BME280;4040;42.848;23.034;2023-05-15T19:34:03;94737.38;;;14.74;100.00
7990;BME280;4040;42.848;23.034;2023-05-15T19:39:53;94750.41;;;14.79;100.00
7990;BME280;4040;42.848;23.034;2023-05-15T19:45:42;94747.56;;;14.70;100.00
7990;BME280;4040;42.848;23.034;2023-05-15T19:51:30;94763.19;;;14.66;100.00
7990;BME280;4040;42.848;23.034;2023-05-15T20:01:43;94743.91;;;14.48;100.00
7990;BME280;4040;42.848;23.034;2023-05-15T20:07:31;94756.41;;;14.58;100.00
7990;BME280;4040;42.848;23.034;2023-05-15T20:13:20;94759.13;;;14.58;100.00
7990;BME280;4040;42.848;23.034;2023-05-15T20:19:11;94748.28;;;14.58;100.00
7990;BME280;4040;42.848;23.034;2023-05-15T20:24:59;94738.16;;;14.46;100.00
7990;BME280;4040;42.848;23.034;2023-05-15T20:30:48;94729.88;;;14.37;100.00
7990;BME280;4040;42.848;23.034;2023-05-15T20:36:39;94721.22;;;14.42;100.00
7990;BME280;4040;42.848;23.034;2023-05-15T20:42:28;94707.50;;;14.33;100.00
7990;BME280;4040;42.848;23.034;2023-05-15T20:48:18;94702.63;;;14.28;100.00
7990;BME280;4040;42.848;23.034;2023-05-15T20:54:08;94701.69;;;14.34;100.00
7990;BME280;4040;42.848;23.034;2023-05-15T21:04:19;94697.97;;;14.28;100.00
7990;BME280;4040;42.848;23.034;2023-05-15T21:10:10;94719.03;;;14.37;100.00
7990;BME280;4040;42.848;23.034;2023-05-15T21:15:59;94719.88;;;14.34;100.00
7990;BME280;4040;42.848;23.034;2023-05-15T21:21:47;94710.47;;;14.38;100.00
7990;BME280;4040;42.848;23.034;2023-05-15T21:27:37;94710.69;;;14.44;100.00
7990;BME280;4040;42.848;23.034;2023-05-15T21:33:26;94713.41;;;14.44;100.00
7990;BME280;4040;42.848;23.034;2023-05-15T21:39:15;94708.19;;;14.37;100.00
7990;BME280;4040;42.848;23.034;2023-05-15T21:45:06;94710.38;;;14.42;100.00
7990;BME280;4040;42.848;23.034;2023-05-15T21:50:55;94711.56;;;14.41;100.00
7990;BME280;4040;42.848;23.034;2023-05-15T21:56:43;94719.69;;;14.41;100.00
7990;BME280;4040;42.848;23.034;2023-05-15T22:08:31;94728.03;;;13.86;100.00
7990;BME280;4040;42.848;23.034;2023-05-15T22:14:19;94729.41;;;13.94;100.00
7990;BME280;4040;42.848;23.034;2023-05-15T22:20:08;94718.13;;;14.11;100.00
7990;BME280;4040;42.848;23.034;2023-05-15T22:25:58;94716.34;;;14.21;100.00
7990;BME280;4040;42.848;23.034;2023-05-15T22:31:47;94719.38;;;14.07;100.00
7990;BME280;4040;42.848;23.034;2023-05-15T22:37:35;94720.91;;;14.08;100.00
7990;BME280;4040;42.848;23.034;2023-05-15T22:43:25;94706.72;;;14.04;100.00
7990;BME280;4040;42.848;23.034;2023-05-15T22:49:14;94709.06;;;14.02;100.00
7990;BME280;4040;42.848;23.034;2023-05-15T22:55:06;94692.63;;;14.09;100.00
7990;BME280;4040;42.848;23.034;2023-05-15T23:00:57;94697.13;;;14.15;100.00
7990;BME280;4040;42.848;23.034;2023-05-15T23:06:46;94693.22;;;14.16;100.00
7990;BME280;4040;42.848;23.034;2023-05-15T23:12:34;94687.06;;;14.16;100.00
7990;BME280;4040;42.848;23.034;2023-05-15T23:18:24;94682.84;;;13.99;100.00
7990;BME280;4040;42.848;23.034;2023-05-15T23:24:12;94684.56;;;13.77;100.00
7990;BME280;4040;42.848;23.034;2023-05-15T23:30:02;94646.00;;;13.57;100.00
7990;BME280;4040;42.848;23.034;2023-05-15T23:35:52;94672.28;;;13.72;100.00
7990;BME280;4040;42.848;23.034;2023-05-15T23:41:41;94667.91;;;13.78;100.00
7990;BME280;4040;42.848;23.034;2023-05-15T23:47:29;94647.53;;;13.74;100.00
7990;BME280;4040;42.848;23.034;2023-05-15T23:53:19;94660.59;;;13.91;100.00
7990;BME280;4040;42.848;23.034;2023-05-15T23:59:07;94644.81;;;13.74;100.00
